Flight Track Log - Related Links

Times and Time Zones

All times are in EDT time to prevent confusion due to time zone crossing. See the N186TH flight status page for this flight to view local times or setup timezone preferences in your user account.

Time Position Orientation Groundspeed Altitude Reporting Facility
EDT Latitude Longitude Course Direction KTS MPH feet Rate Location/Type
Tue 09:50:13 AM 27.1886 -80.2100 303° West 96 110 1,100  Level Miami Center
Tue 09:51:13 AM 27.2067 -80.2408 290° West 143 165 1,700 700 Climbing Miami Center
Tue 09:52:13 AM 27.2203 -80.2831 289° West 149 171 2,500 800 Climbing Miami Center
Tue 09:53:13 AM 27.2319 -80.3208 296° West 149 171 3,300 800 Climbing Miami Center
Tue 09:54:13 AM 27.2497 -80.3611 323° Northwest 149 171 4,100 900 Climbing Miami Center
Tue 09:55:13 AM 27.2844 -80.3903 316° Northwest 139 160 5,100 850 Climbing Miami Center
Tue 09:56:13 AM 27.3131 -80.4214 315° West 139 160 5,800 700 Climbing Miami Center
Tue 09:57:13 AM 27.3414 -80.4528 316° Northwest 139 160 6,500 700 Climbing Miami Center
Tue 09:58:13 AM 27.3678 -80.4817 316° Northwest 145 167 7,200 650 Climbing Miami Center
Tue 09:59:13 AM 27.3964 -80.5131 317° Northwest 145 167 7,800 450 Climbing Miami Center
Tue 10:00:13 AM 27.4289 -80.5467 314° West 145 167 8,100 100 Climbing Miami Center
Tue 10:01:13 AM 27.4633 -80.5875 315° West 160 184 8,000 -50 Descending Miami Center
Tue 10:02:13 AM 27.5017 -80.6311 315° West 179 206 8,000  Level Miami Center
Tue 10:03:13 AM 27.5364 -80.6697 315° West 192 221 8,000  Level Miami Center
Tue 10:04:13 AM 27.5789 -80.7178 317° Northwest 192 221 8,000 50 Level Miami Center
Tue 10:05:13 AM 27.6175 -80.7589 316° Northwest 198 228 8,100 50 Climbing Miami Center
Tue 10:06:13 AM 27.6581 -80.8025 315° West 198 228 8,100  Level Miami Center
Tue 10:07:13 AM 27.6964 -80.8461 316° Northwest 198 228 8,100  Level Miami Center
Tue 10:08:13 AM 27.7369 -80.8897 315° West 198 228 8,100  Level Miami Center
Tue 10:10:46 AM 27.8333 -81.0000 329° Northwest 201 231 8,100 -29 Level Orlando TRACON
Tue 10:11:40 AM 27.8833 -81.0333 307° West 200 230 8,000  Descending Orlando TRACON
Tue 10:12:40 AM 27.9167 -81.0833 307° West 198 228 8,100  Climbing Orlando TRACON
Tue 10:13:40 AM 27.9500 -81.1333 330° Northwest 200 230 8,000 -50 Descending Orlando TRACON
Tue 10:14:40 AM 28.0000 -81.1667 307° West 201 231 8,000  Level Orlando TRACON
Tue 10:15:40 AM 28.0333 -81.2167 330° Northwest 200 230 8,000 -48 Level Orlando TRACON
Tue 10:16:46 AM 28.0833 -81.2500 307° West 201 231 7,900 -50 Descending Orlando TRACON
Tue 10:17:40 AM 28.1167 -81.3000 319° Northwest 200 230 7,900  Level Orlando TRACON
Tue 10:18:52 AM 28.1667 -81.3500 319° Northwest 196 226 7,900  Level Orlando TRACON
Tue 10:19:58 AM 28.2167 -81.4000 307° West 199 229 7,900  Level Orlando TRACON
Tue 10:20:58 AM 28.2500 -81.4500 307° West 202 232 7,900  Level Orlando TRACON
Tue 10:21:52 AM 28.2833 -81.5000 307° West 199 229 7,900 53 Level Orlando TRACON
Tue 10:22:52 AM 28.3167 -81.5500 319° Northwest 196 226 8,000  Climbing Orlando TRACON
Tue 10:23:52 AM 28.3500 -81.5833 300° West 198 228 7,900  Descending Orlando TRACON
Tue 10:25:04 AM 28.3833 -81.6500 319° Northwest 198 228 8,000  Climbing Orlando TRACON
Tue 10:25:53 AM 28.4167 -81.6833 307° West 198 228 7,900 -58 Descending Orlando TRACON
Tue 10:26:47 AM 28.4500 -81.7333 319° Northwest 198 228 7,900 56 Level Orlando TRACON
Tue 10:27:41 AM 28.4833 -81.7667 328° Northwest 203 234 8,000 28 Climbing Orlando TRACON
Tue 10:30:20 AM 28.6028 -81.8522 331° Northwest 196 226 8,000  Level Jacksonville Center
Tue 10:31:15 AM 28.6467 -81.8800 330° Northwest 195 224 8,000  Level Jacksonville Center
Tue 10:32:22 AM 28.6972 -81.9128 330° Northwest 197 227 8,000  Level Jacksonville Center
Tue 10:33:10 AM 28.7392 -81.9406 329° Northwest 198 228 8,000  Level Jacksonville Center
Tue 10:34:23 AM 28.7978 -81.9803 330° Northwest 198 228 8,000  Level Jacksonville Center
Tue 10:35:18 AM 28.8375 -82.0061 331° Northwest 197 227 8,000  Level Jacksonville Center
Tue 10:36:19 AM 28.8900 -82.0389 326° Northwest 197 227 8,000  Level Jacksonville Center
Tue 10:37:20 AM 28.9361 -82.0742 331° Northwest 196 226 8,000  Level Jacksonville Center
Tue 10:38:21 AM 28.9844 -82.1044 329° Northwest 196 226 8,000  Level Jacksonville Center
Tue 10:39:10 AM 29.0222 -82.1303 333° Northwest 196 226 8,000  Level Jacksonville Center
Tue 10:40:11 AM 29.0703 -82.1586 327° Northwest 196 226 8,000  Level Jacksonville Center
Tue 10:41:12 AM 29.1186 -82.1939 331° Northwest 195 224 8,000  Level Jacksonville Center
Tue 10:42:13 AM 29.1667 -82.2244 309° West 195 224 8,000  Level Jacksonville Center
Tue 10:43:14 AM 29.2003 -82.2717 298° West 198 228 8,000  Level Jacksonville Center
Tue 10:44:20 AM 29.2297 -82.3358 301° West 199 229 8,000  Level Jacksonville Center
Tue 10:45:16 AM 29.2550 -82.3833 300° West 197 227 8,000  Level Jacksonville Center
Tue 10:46:23 AM 29.2867 -82.4450 300° West 197 227 8,000  Level Jacksonville Center
Tue 10:47:30 AM 29.3181 -82.5067 302° West 199 229 8,000  Level Jacksonville Center
Tue 10:48:21 AM 29.3392 -82.5447 300° West 200 230 8,000  Level Jacksonville Center
Tue 10:49:21 AM 29.3664 -82.5994 302° West 200 230 8,000  Level Jacksonville Center
Tue 10:50:21 AM 29.3958 -82.6542 299° West 212 244 8,000  Level Jacksonville Center
Tue 10:51:21 AM 29.4208 -82.7067 302° West 206 237 8,000  Level Jacksonville Center
Tue 10:52:21 AM 29.4503 -82.7614 300° West 201 231 8,000  Level Jacksonville Center
Tue 10:53:21 AM 29.4772 -82.8161 301° West 201 231 8,000  Level Jacksonville Center
Tue 10:54:21 AM 29.5044 -82.8686 299° West 201 231 8,000  Level Jacksonville Center
Tue 10:55:21 AM 29.5336 -82.9283 301° West 201 231 8,000  Level Jacksonville Center
Tue 10:56:21 AM 29.5628 -82.9833 300° West 201 231 8,000  Level Jacksonville Center
Tue 10:57:21 AM 29.5900 -83.0383 306° West 198 228 8,000  Level Jacksonville Center
Tue 10:58:21 AM 29.6214 -83.0886 310° West 198 228 8,000  Level Jacksonville Center
Tue 10:59:21 AM 29.6567 -83.1364 312° West 198 228 8,000  Level Jacksonville Center
Tue 11:00:21 AM 29.6942 -83.1842 310° West 198 228 8,000  Level Jacksonville Center
Tue 11:01:21 AM 29.7294 -83.2322 310° West 194 223 8,000  Level Jacksonville Center
Tue 11:02:21 AM 29.7647 -83.2803 309° West 200 230 8,000  Level Jacksonville Center
Tue 11:03:21 AM 29.7981 -83.3283 312° West 200 230 8,000  Level Jacksonville Center
Tue 11:04:21 AM 29.8333 -83.3739 310° West 195 224 8,000  Level Jacksonville Center
Tue 11:05:21 AM 29.8686 -83.4219 309° West 195 224 8,000  Level Jacksonville Center
Tue 11:06:21 AM 29.9019 -83.4700 312° West 195 224 8,000  Level Jacksonville Center
Tue 11:07:21 AM 29.9392 -83.5181 309° West 195 224 8,000  Level Jacksonville Center
Tue 11:08:21 AM 29.9725 -83.5664 310° West 200 230 8,000  Level Jacksonville Center
Tue 11:09:21 AM 30.0078 -83.6144 310° West 200 230 8,000  Level Jacksonville Center
Tue 11:10:21 AM 30.0408 -83.6603 310° West 200 230 8,000  Level Jacksonville Center
Tue 11:11:22 AM 30.0761 -83.7086 281° West 200 230 8,000  Level Jacksonville Center
Tue 11:12:21 AM 30.0861 -83.7689 269° West 195 224 8,000  Level Jacksonville Center
Tue 11:13:22 AM 30.0856 -83.8311 278° West 188 216 8,000  Level Jacksonville Center
Tue 11:14:22 AM 30.0936 -83.8936 272° West 194 223 8,000  Level Jacksonville Center
Tue 11:15:22 AM 30.0950 -83.9536 276° West 199 229 8,000  Level Jacksonville Center
Tue 11:16:22 AM 30.1008 -84.0186 278° West 199 229 8,000  Level Jacksonville Center
Tue 11:17:22 AM 30.1086 -84.0811 276° West 199 229 8,000  Level Jacksonville Center
Tue 11:18:22 AM 30.1142 -84.1411 287° West 199 229 8,000 40 Level Jacksonville Center
Tue 12:04:48 PM 30.7853 -86.7903 266° West 191 220 9,900 40 Climbing Jacksonville Center
Tue 12:05:49 PM 30.7811 -86.8531 270° West 192 221 9,900  Level Jacksonville Center
Tue 12:06:50 PM 30.7814 -86.9136 266° West 191 220 9,900  Level Jacksonville Center
Tue 12:07:45 PM 30.7775 -86.9714 266° West 192 221 9,900  Level Jacksonville Center
Tue 12:08:46 PM 30.7733 -87.0342 268° West 192 221 9,900  Level Jacksonville Center
Tue 12:09:52 PM 30.7711 -87.1042 268° West 192 221 9,900  Level Jacksonville Center
Tue 12:10:53 PM 30.7689 -87.1644 268° West 191 220 9,900  Level Jacksonville Center
Tue 12:11:54 PM 30.7669 -87.2272 265° West 189 217 9,900  Level Jacksonville Center
Tue 12:12:55 PM 30.7628 -87.2875 268° West 190 219 9,900  Level Jacksonville Center
Tue 12:13:56 PM 30.7606 -87.3500 266° West 189 217 9,900  Level Jacksonville Center
Tue 12:15:03 PM 30.7561 -87.4175 270° West 190 219 9,900  Level Jacksonville Center
Tue 12:15:51 PM 30.7564 -87.4683 265° West 188 216 9,900  Level Jacksonville Center
Tue 12:16:52 PM 30.7522 -87.5261 267° West 188 216 9,900 -3 Level Jacksonville Center
Tue 12:50:04 PM 30.6389 -89.5614 266° West 187 215 9,800 -3 Descending Houston Center
Tue 12:50:59 PM 30.6356 -89.6169 266° West 186 214 9,800  Level Houston Center
Tue 12:51:59 PM 30.6322 -89.6750 264° West 184 212 9,800  Level Houston Center
Tue 12:53:00 PM 30.6269 -89.7353 266° West 185 213 9,800  Level Houston Center
Tue 12:54:00 PM 30.6236 -89.7933 268° West 186 214 9,800  Level Houston Center
Tue 12:55:01 PM 30.6222 -89.8536 262° West 187 215 9,800  Level Houston Center
Tue 12:56:02 PM 30.6147 -89.9167 268° West 186 214 9,800  Level Houston Center
Tue 12:57:02 PM 30.6133 -89.9769 266° West 187 215 9,800  Level Houston Center
Tue 12:58:03 PM 30.6100 -90.0372 262° West 187 215 9,800  Level Houston Center
Tue 12:59:04 PM 30.6025 -90.0978 266° West 189 217 9,800  Level Houston Center
Tue 01:00:04 PM 30.5989 -90.1581 266° West 188 216 9,800  Level Houston Center
Tue 01:01:05 PM 30.5953 -90.2183 264° West 187 215 9,800  Level Houston Center
Tue 01:02:06 PM 30.5897 -90.2789 266° West 187 215 9,800  Level Houston Center
Tue 01:03:06 PM 30.5861 -90.3439 265° West 187 215 9,800  Level Houston Center
Tue 01:10:15 PM 30.5531 -90.7658 263° West  Level FlightAware Approximate
Tue 01:11:15 PM 30.5469 -90.8246 266° West  Level FlightAware Approximate
Tue 01:12:15 PM 30.5434 -90.8838 259° West  Level FlightAware Approximate
Tue 01:13:15 PM 30.5333 -90.9416 270° West  Level FlightAware Approximate
Tue 01:14:15 PM 30.5333 -91.0009 268° West  Level FlightAware Approximate
Tue 01:15:15 PM 30.5314 -91.0599 271° West  Level FlightAware Approximate
Tue 01:16:15 PM 30.5324 -91.1191 271° West  Level Estimated
Tue 01:17:15 PM 30.5334 -91.1784 91° East  Level Estimated
Tue 01:18:15 PM 30.5324 -91.1191 271° West  Level Estimated
Tue 01:19:15 PM 30.5334 -91.1784 91° East  Level Estimated
Tue 01:20:15 PM 30.5324 -91.1191 271° West  Level Estimated
Tue 01:21:15 PM 30.5334 -91.1784 113° Southeast  Level Estimated
Tue 01:22:15 PM 30.5167 -91.1333 319° Northwest  Level FlightAware Approximate
Tue 01:23:15 PM 30.5550 -91.1724 139° Southeast  Level Estimated
Tue 01:24:15 PM 30.5167 -91.1333 319° Northwest  Level FlightAware Approximate
Tue 01:25:15 PM 30.5550 -91.1724 319° Northwest  Level Estimated

Login

Don't have an account? Register now (free) for customized features, flight alerts, and more!